Time;durP1;ratioP1;P1;durP2;ratioP2;P2;SDS_P1;SDS_P2;PMS_P1;PMS_P2;Temp;Humidity;BMP_temperature;BMP_pressure;BME280_temperature;BME280_humidity;BME280_pressure;Samples;Min_cycle;Max_cycle;Signal;HPM_P1;HPM_P2
2022/11/20 00:02:08;;;;;;;;;;;;;;;;;;6271793;22;19907;-82
2022/11/20 00:04:34;;;;;;;;;;;;;;;;;;6271858;22;19904;-83
2022/11/20 00:07:00;;;;;;;;;;;;;;;;;;6272380;22;20233;-82
2022/11/20 00:09:26;;;;;;;;;;;;;;;;;;6270207;22;19910;-83
2022/11/20 00:11:52;;;;;;;;;;;;;;;;;;6271944;22;20029;-83
2022/11/20 00:14:17;;;;;;;;;;;;;;;;;;6271499;22;19903;-83
2022/11/20 00:16:43;;;;;;;;;;;;;;;;;;6271583;22;19926;-83
2022/11/20 00:19:09;;;;;;;;;;;;;;;;;;6271762;22;19910;-83
2022/11/20 00:21:35;;;;;;;;;;;;;;;;;;6271594;22;19911;-84
2022/11/20 00:24:01;;;;;;;;;;;;;;;;;;6272764;22;19903;-83
2022/11/20 00:26:27;;;;;;;;;;;;;;;;;;6271730;22;19904;-82
2022/11/20 00:28:53;;;;;;;;;;;;;;;;;;6271607;22;19903;-84
2022/11/20 00:31:19;;;;;;;;;;;;;;;;;;6271325;22;19910;-83
2022/11/20 00:33:45;;;;;;;;;;;;;;;;;;6271381;22;19904;-83
2022/11/20 00:36:11;;;;;;;;;;;;;;;;;;6271758;22;19914;-82
2022/11/20 00:38:36;;;;;;;;;;;;;;;;;;6271692;22;20278;-82
2022/11/20 00:41:02;;;;;;;;;;;;;;;;;;6272579;22;19919;-83
2022/11/20 00:43:28;;;;;;;;;;;;;;;;;;6271203;22;19938;-82
2022/11/20 00:45:54;;;;;;;;;;;;;;;;;;6270666;22;19956;-83
2022/11/20 00:48:20;;;;;;;;;;;;;;;;;;6271342;22;19907;-83
2022/11/20 00:50:46;;;;;;;;;;;;;;;;;;6271817;22;20316;-84
2022/11/20 00:53:12;;;;;;;;;;;;;;;;;;6271086;22;19903;-84
2022/11/20 00:55:38;;;;;;;;;;;;;;;;;;6271639;22;20248;-84
2022/11/20 00:58:03;;;;;;;;;;;;;;;;;;6272694;22;19939;-82
2022/11/20 01:00:29;;;;;;;;;;;;;;;;;;6271463;22;19918;-83
2022/11/20 01:02:55;;;;;;;;;;;;;;;;;;6244679;22;20272;-84
2022/11/20 01:05:21;;;;;;;;;;;;;;;;;;6271846;22;20346;-83
2022/11/20 01:07:47;;;;;;;;;;;;;;;;;;6271172;22;19907;-84
2022/11/20 01:10:13;;;;;;;;;;;;;;;;;;6271701;22;19949;-82
2022/11/20 01:12:39;;;;;;;;;;;;;;;;;;6244490;22;19940;-82
2022/11/20 01:15:05;;;;;;;;;;;;;;;;;;6272570;22;19903;-83
2022/11/20 01:17:31;;;;;;;;;;;;;;;;;;6272586;22;19911;-82
2022/11/20 01:19:57;;;;;;;;;;;;;;;;;;6271318;22;19916;-83
2022/11/20 01:22:23;;;;;;;;;;;;;;;;;;6270707;22;19904;-83
2022/11/20 01:24:48;;;;;;;;;;;;;;;;;;6271722;22;19903;-83
2022/11/20 01:27:14;;;;;;;;;;;;;;;;;;6271656;22;20347;-83
2022/11/20 01:29:40;;;;;;;;;;;;;;;;;;6271573;22;19991;-83
2022/11/20 01:32:06;;;;;;;;;;;;;;;;;;6272595;22;19903;-82
2022/11/20 01:34:32;;;;;;;;;;;;;;;;;;6272557;22;20363;-83
2022/11/20 01:36:58;;;;;;;;;;;;;;;;;;6243534;22;19903;-83
2022/11/20 01:39:24;;;;;;;;;;;;;;;;;;6271436;22;19918;-83
2022/11/20 01:44:34;;;;;;;;;;;;;;;;;;6272362;22;19961;-82
2022/11/20 01:47:00;;;;;;;;;;;;;;;;;;6271450;22;19911;-82
2022/11/20 01:49:26;;;;;;;;;;;;;;;;;;6244070;22;19929;-83
2022/11/20 01:51:52;;;;;;;;;;;;;;;;;;6271536;22;19910;-83
2022/11/20 01:54:18;;;;;;;;;;;;;;;;;;6270910;22;19910;-82
2022/11/20 01:56:44;;;;;;;;;;;;;;;;;;6271059;22;19965;-83
2022/11/20 01:59:10;;;;;;;;;;;;;;;;;;6271324;22;19986;-82
2022/11/20 02:01:36;;;;;;;;;;;;;;;;;;6272209;22;19917;-83
2022/11/20 02:04:02;;;;;;;;;;;;;;;;;;6243894;22;19904;-82
2022/11/20 02:06:27;;;;;;;;;;;;;;;;;;6270928;22;20106;-83
2022/11/20 02:08:53;;;;;;;;;;;;;;;;;;6244271;22;19903;-83
2022/11/20 02:11:19;;;;;;;;;;;;;;;;;;6271281;22;19903;-83
2022/11/20 02:13:45;;;;;;;;;;;;;;;;;;6270467;22;19907;-83
2022/11/20 02:16:11;;;;;;;;;;;;;;;;;;6271528;22;19903;-83
2022/11/20 02:18:37;;;;;;;;;;;;;;;;;;6272607;22;19908;-83
2022/11/20 02:21:03;;;;;;;;;;;;;;;;;;6271055;22;19911;-82
2022/11/20 02:23:29;;;;;;;;;;;;;;;;;;6243788;22;20114;-82
2022/11/20 02:25:55;;;;;;;;;;;;;;;;;;6273030;22;19929;-85
2022/11/20 02:28:21;;;;;;;;;;;;;;;;;;6272373;22;20029;-83
2022/11/20 02:30:46;;;;;;;;;;;;;;;;;;6272957;22;19903;-83
2022/11/20 02:33:12;;;;;;;;;;;;;;;;;;6273258;22;19903;-83
2022/11/20 02:35:38;;;;;;;;;;;;;;;;;;6273580;22;19904;-84
2022/11/20 02:38:04;;;;;;;;;;;;;;;;;;6245687;22;19910;-84
2022/11/20 02:40:30;;;;;;;;;;;;;;;;;;6272813;22;20115;-84
2022/11/20 02:42:56;;;;;;;;;;;;;;;;;;6273072;22;19949;-83
2022/11/20 02:45:22;;;;;;;;;;;;;;;;;;6272725;22;19983;-83
2022/11/20 02:47:48;;;;;;;;;;;;;;;;;;6246016;22;20220;-84
2022/11/20 02:50:14;;;;;;;;;;;;;;;;;;6273010;22;19904;-83
2022/11/20 02:52:40;;;;;;;;;;;;;;;;;;6273948;22;19903;-80
2022/11/20 02:55:06;;;;;;;;;;;;;;;;;;6272750;22;20328;-80
2022/11/20 02:57:31;;;;;;;;;;;;;;;;;;6272646;22;19907;-81
2022/11/20 02:59:57;;;;;;;;;;;;;;;;;;6272628;22;19912;-81
2022/11/20 03:02:23;;;;;;;;;;;;;;;;;;6272671;22;19903;-80
2022/11/20 03:04:51;;;;;;;;;;;;;;;;;;6272280;22;19979;-81
2022/11/20 03:07:16;;;;;;;;;;;;;;;;;;6272655;22;19903;-80
2022/11/20 03:09:42;;;;;;;;;;;;;;;;;;6245717;22;19930;-83
2022/11/20 03:12:08;;;;;;;;;;;;;;;;;;6273544;22;20225;-83
2022/11/20 03:14:34;;;;;;;;;;;;;;;;;;6272005;22;19910;-81
2022/11/20 03:17:00;;;;;;;;;;;;;;;;;;6272810;22;20224;-83
2022/11/20 03:19:26;;;;;;;;;;;;;;;;;;6272712;22;19903;-83
2022/11/20 03:21:52;;;;;;;;;;;;;;;;;;6272493;22;19911;-83
2022/11/20 03:24:18;;;;;;;;;;;;;;;;;;6272092;22;20237;-84
2022/11/20 03:26:44;;;;;;;;;;;;;;;;;;6272674;22;19975;-82
2022/11/20 03:29:09;;;;;;;;;;;;;;;;;;6246627;22;19903;-82
2022/11/20 03:31:35;;;;;;;;;;;;;;;;;;6272533;22;19903;-84
2022/11/20 03:34:01;;;;;;;;;;;;;;;;;;6245454;22;19907;-82
2022/11/20 03:36:27;;;;;;;;;;;;;;;;;;6271714;22;19903;-84
2022/11/20 03:38:53;;;;;;;;;;;;;;;;;;6272070;22;20340;-83
2022/11/20 03:41:19;;;;;;;;;;;;;;;;;;6272225;22;19996;-83
2022/11/20 03:43:45;;;;;;;;;;;;;;;;;;6272513;22;20351;-82
2022/11/20 03:46:11;;;;;;;;;;;;;;;;;;6273095;22;19911;-82
2022/11/20 03:48:36;;;;;;;;;;;;;;;;;;6272237;22;19918;-84
2022/11/20 03:51:02;;;;;;;;;;;;;;;;;;6272369;22;19904;-83
2022/11/20 03:53:28;;;;;;;;;;;;;;;;;;6272210;22;19981;-83
2022/11/20 03:55:54;;;;;;;;;;;;;;;;;;6244137;22;19910;-82
2022/11/20 03:58:20;;;;;;;;;;;;;;;;;;6272194;22;19903;-82
2022/11/20 04:00:46;;;;;;;;;;;;;;;;;;6244923;22;19961;-83
2022/11/20 04:03:12;;;;;;;;;;;;;;;;;;6246124;22;20220;-82
2022/11/20 04:05:38;;;;;;;;;;;;;;;;;;6271892;22;19957;-83
2022/11/20 04:08:03;;;;;;;;;;;;;;;;;;6271926;22;19910;-82
2022/11/20 04:10:29;;;;;;;;;;;;;;;;;;6272420;22;20320;-82
2022/11/20 04:12:55;;;;;;;;;;;;;;;;;;6272237;22;19935;-82
2022/11/20 04:15:21;;;;;;;;;;;;;;;;;;6271781;22;20006;-83
2022/11/20 04:17:47;;;;;;;;;;;;;;;;;;6272114;22;19903;-82
2022/11/20 04:20:13;;;;;;;;;;;;;;;;;;6273109;22;19961;-83
2022/11/20 04:22:39;;;;;;;;;;;;;;;;;;6271872;22;19974;-83
2022/11/20 04:25:05;;;;;;;;;;;;;;;;;;6271336;22;19953;-84
2022/11/20 04:27:31;;;;;;;;;;;;;;;;;;6271687;22;19950;-82
2022/11/20 04:29:57;;;;;;;;;;;;;;;;;;6272100;22;19903;-82
2022/11/20 04:32:23;;;;;;;;;;;;;;;;;;6270441;22;19962;-83
2022/11/20 04:34:49;;;;;;;;;;;;;;;;;;6271737;22;19903;-81
2022/11/20 04:37:15;;;;;;;;;;;;;;;;;;6272005;22;20320;-81
2022/11/20 04:39:40;;;;;;;;;;;;;;;;;;6271029;22;19915;-82
2022/11/20 04:44:51;;;;;;;;;;;;;;;;;;6269100;22;20291;-84
2022/11/20 04:47:17;;;;;;;;;;;;;;;;;;6271828;22;19904;-82
2022/11/20 04:49:43;;;;;;;;;;;;;;;;;;6272788;22;19903;-83
2022/11/20 04:52:09;;;;;;;;;;;;;;;;;;6271851;22;19903;-82
2022/11/20 04:54:35;;;;;;;;;;;;;;;;;;6271637;22;19911;-82
2022/11/20 04:57:01;;;;;;;;;;;;;;;;;;6271868;22;19914;-83
2022/11/20 04:59:27;;;;;;;;;;;;;;;;;;6244676;22;19957;-83
2022/11/20 05:01:52;;;;;;;;;;;;;;;;;;6244399;22;19919;-83
2022/11/20 05:04:18;;;;;;;;;;;;;;;;;;6272157;22;19956;-82
2022/11/20 05:06:45;;;;;;;;;;;;;;;;;;6272962;22;19903;-83
2022/11/20 05:09:11;;;;;;;;;;;;;;;;;;6244775;22;19907;-83
2022/11/20 05:11:37;;;;;;;;;;;;;;;;;;6271669;22;19953;-81
2022/11/20 05:14:03;;;;;;;;;;;;;;;;;;6271870;22;20010;-82
2022/11/20 05:16:28;;;;;;;;;;;;;;;;;;6271718;22;19910;-80
2022/11/20 05:18:54;;;;;;;;;;;;;;;;;;6272014;22;20278;-81
2022/11/20 05:21:20;;;;;;;;;;;;;;;;;;6271925;22;20002;-82
2022/11/20 05:23:46;;;;;;;;;;;;;;;;;;6270761;22;20248;-83
2022/11/20 05:26:12;;;;;;;;;;;;;;;;;;6267882;22;19907;-82
2022/11/20 05:28:38;;;;;;;;;;;;;;;;;;6268930;22;20228;-82
2022/11/20 05:31:04;;;;;;;;;;;;;;;;;;6267398;22;20329;-83
2022/11/20 05:33:30;;;;;;;;;;;;;;;;;;6269287;22;19907;-84
2022/11/20 05:35:55;;;;;;;;;;;;;;;;;;6267316;22;20368;-83
2022/11/20 05:38:21;;;;;;;;;;;;;;;;;;6268238;22;21620;-84
2022/11/20 05:40:47;;;;;;;;;;;;;;;;;;6269490;22;20331;-80
2022/11/20 05:43:13;;;;;;;;;;;;;;;;;;6269064;22;19903;-84
2022/11/20 05:45:39;;;;;;;;;;;;;;;;;;6269305;22;20185;-84
2022/11/20 05:48:05;;;;;;;;;;;;;;;;;;6269018;22;19913;-83
2022/11/20 05:50:31;;;;;;;;;;;;;;;;;;6241560;22;19934;-83
2022/11/20 05:52:57;;;;;;;;;;;;;;;;;;6268660;22;19914;-83
2022/11/20 05:55:22;;;;;;;;;;;;;;;;;;6267936;22;20354;-84
2022/11/20 05:57:48;;;;;;;;;;;;;;;;;;6268963;22;20010;-83
2022/11/20 06:00:14;;;;;;;;;;;;;;;;;;6270142;22;20358;-84
2022/11/20 06:02:40;;;;;;;;;;;;;;;;;;6269377;22;20118;-83
2022/11/20 06:05:06;;;;;;;;;;;;;;;;;;6271235;22;19903;-87
2022/11/20 06:07:32;;;;;;;;;;;;;;;;;;6245139;22;19907;-85
2022/11/20 06:09:58;;;;;;;;;;;;;;;;;;6239972;22;20397;-86
2022/11/20 06:12:24;;;;;;;;;;;;;;;;;;6271024;22;19937;-82
2022/11/20 06:14:50;;;;;;;;;;;;;;;;;;6244579;22;20287;-85
2022/11/20 06:17:15;;;;;;;;;;;;;;;;;;6243121;22;19957;-88
2022/11/20 06:19:41;;;;;;;;;;;;;;;;;;6242903;22;20351;-87
2022/11/20 06:22:07;;;;;;;;;;;;;;;;;;6270463;22;19950;-86
2022/11/20 06:24:33;;;;;;;;;;;;;;;;;;6270451;22;19903;-86
2022/11/20 06:26:59;;;;;;;;;;;;;;;;;;6243467;22;19929;-84
2022/11/20 06:29:25;;;;;;;;;;;;;;;;;;6273072;22;19910;-85
2022/11/20 06:31:51;;;;;;;;;;;;;;;;;;6246995;22;19915;-86
2022/11/20 06:34:17;;;;;;;;;;;;;;;;;;6273557;22;19907;-85
2022/11/20 06:36:43;;;;;;;;;;;;;;;;;;6273334;22;20263;-85
2022/11/20 06:39:09;;;;;;;;;;;;;;;;;;6273122;22;19911;-84
2022/11/20 06:41:34;;;;;;;;;;;;;;;;;;6272887;22;19918;-83
2022/11/20 06:44:00;;;;;;;;;;;;;;;;;;6273179;22;20283;-83
2022/11/20 06:46:27;;;;;;;;;;;;;;;;;;6272756;22;19938;-84
2022/11/20 06:48:53;;;;;;;;;;;;;;;;;;6272168;22;19930;-82
2022/11/20 06:51:19;;;;;;;;;;;;;;;;;;6246830;22;19903;-81
2022/11/20 06:53:45;;;;;;;;;;;;;;;;;;6272817;22;19982;-82
2022/11/20 06:56:11;;;;;;;;;;;;;;;;;;6272054;22;19904;-82
2022/11/20 06:58:37;;;;;;;;;;;;;;;;;;6244498;22;19910;-82
2022/11/20 07:01:03;;;;;;;;;;;;;;;;;;6272332;22;19911;-82
2022/11/20 07:03:28;;;;;;;;;;;;;;;;;;6273105;22;19975;-82
2022/11/20 07:05:54;;;;;;;;;;;;;;;;;;6245853;22;19903;-82
2022/11/20 07:08:20;;;;;;;;;;;;;;;;;;6273964;22;19904;-82
2022/11/20 07:10:46;;;;;;;;;;;;;;;;;;6272466;22;20290;-85
2022/11/20 07:13:12;;;;;;;;;;;;;;;;;;6272584;22;19904;-82
2022/11/20 07:15:38;;;;;;;;;;;;;;;;;;6245036;22;20245;-84
2022/11/20 07:18:04;;;;;;;;;;;;;;;;;;6272509;22;19950;-82
2022/11/20 07:20:30;;;;;;;;;;;;;;;;;;6271648;22;19954;-82
2022/11/20 07:22:56;;;;;;;;;;;;;;;;;;6271131;22;19907;-81
2022/11/20 07:25:22;;;;;;;;;;;;;;;;;;6273206;22;19911;-82
2022/11/20 07:27:48;;;;;;;;;;;;;;;;;;6244820;22;19907;-81
2022/11/20 07:30:14;;;;;;;;;;;;;;;;;;6272391;22;19903;-81
2022/11/20 07:32:40;;;;;;;;;;;;;;;;;;6245462;22;19903;-81
2022/11/20 07:35:05;;;;;;;;;;;;;;;;;;6272142;22;19903;-81
2022/11/20 07:37:31;;;;;;;;;;;;;;;;;;6272528;22;19930;-81
2022/11/20 07:39:57;;;;;;;;;;;;;;;;;;6264277;22;19911;-81
2022/11/20 07:42:23;;;;;;;;;;;;;;;;;;6273015;22;19907;-83
2022/11/20 07:44:49;;;;;;;;;;;;;;;;;;6270995;22;19910;-84
2022/11/20 07:47:15;;;;;;;;;;;;;;;;;;6271900;22;20336;-83
2022/11/20 07:49:41;;;;;;;;;;;;;;;;;;6271912;22;20328;-83
2022/11/20 07:52:07;;;;;;;;;;;;;;;;;;6272526;22;19903;-82
2022/11/20 07:54:33;;;;;;;;;;;;;;;;;;6271481;22;20341;-81
2022/11/20 07:56:59;;;;;;;;;;;;;;;;;;6271702;22;19931;-81
2022/11/20 07:59:24;;;;;;;;;;;;;;;;;;6272655;22;19908;-82
2022/11/20 08:01:50;;;;;;;;;;;;;;;;;;6271231;22;19934;-82
2022/11/20 08:04:16;;;;;;;;;;;;;;;;;;6271855;22;20315;-81
2022/11/20 08:06:42;;;;;;;;;;;;;;;;;;6270113;22;19911;-82
2022/11/20 08:09:09;;;;;;;;;;;;;;;;;;6267829;22;20007;-82
2022/11/20 08:14:19;;;;;;;;;;;;;;;;;;6271038;22;19949;-88
2022/11/20 08:16:45;;;;;;;;;;;;;;;;;;6269183;22;19907;-88
2022/11/20 08:19:11;;;;;;;;;;;;;;;;;;6269211;22;19980;-87
2022/11/20 08:21:37;;;;;;;;;;;;;;;;;;6267348;22;19911;-87
2022/11/20 08:24:03;;;;;;;;;;;;;;;;;;6269167;22;19903;-87
2022/11/20 08:26:29;;;;;;;;;;;;;;;;;;6270806;22;19904;-87
2022/11/20 08:28:55;;;;;;;;;;;;;;;;;;6269926;22;19907;-86
2022/11/20 08:31:21;;;;;;;;;;;;;;;;;;6269078;22;19973;-87
2022/11/20 08:33:47;;;;;;;;;;;;;;;;;;6268717;22;19908;-87
2022/11/20 08:36:12;;;;;;;;;;;;;;;;;;6266258;22;19982;-87
2022/11/20 08:38:38;;;;;;;;;;;;;;;;;;6263078;22;19907;-87
2022/11/20 08:43:49;;;;;;;;;;;;;;;;;;6269773;22;19910;-87
2022/11/20 08:46:15;;;;;;;;;;;;;;;;;;6243162;22;19903;-86
2022/11/20 08:48:41;;;;;;;;;;;;;;;;;;6271187;22;19903;-86
2022/11/20 08:51:07;;;;;;;;;;;;;;;;;;6244239;22;19903;-86
2022/11/20 08:53:33;;;;;;;;;;;;;;;;;;6243926;22;19907;-86
2022/11/20 08:55:58;;;;;;;;;;;;;;;;;;6271348;22;19904;-87
2022/11/20 08:58:24;;;;;;;;;;;;;;;;;;6245363;22;20248;-86
2022/11/20 09:00:50;;;;;;;;;;;;;;;;;;6243946;22;19918;-88
2022/11/20 09:03:16;;;;;;;;;;;;;;;;;;6271407;22;19965;-88
2022/11/20 09:05:42;;;;;;;;;;;;;;;;;;6270534;22;19904;-87
2022/11/20 09:08:08;;;;;;;;;;;;;;;;;;6244233;22;19982;-87
2022/11/20 09:10:34;;;;;;;;;;;;;;;;;;6271429;22;20251;-88
2022/11/20 09:13:00;;;;;;;;;;;;;;;;;;6271961;22;19941;-88
2022/11/20 09:15:26;;;;;;;;;;;;;;;;;;6243917;22;20336;-88
2022/11/20 09:17:52;;;;;;;;;;;;;;;;;;6244590;22;19907;-88
2022/11/20 09:20:18;;;;;;;;;;;;;;;;;;6271641;22;19914;-88
2022/11/20 09:22:44;;;;;;;;;;;;;;;;;;6271175;22;19903;-87
2022/11/20 09:25:10;;;;;;;;;;;;;;;;;;6271597;22;20247;-86
2022/11/20 09:27:36;;;;;;;;;;;;;;;;;;6271843;22;19957;-85
2022/11/20 09:30:02;;;;;;;;;;;;;;;;;;6271880;22;20244;-84
2022/11/20 09:32:28;;;;;;;;;;;;;;;;;;6272439;22;20330;-86
2022/11/20 09:34:53;;;;;;;;;;;;;;;;;;6245244;22;19915;-85
2022/11/20 09:37:19;;;;;;;;;;;;;;;;;;6246431;22;20272;-88
2022/11/20 09:39:45;;;;;;;;;;;;;;;;;;6273609;22;20332;-88
2022/11/20 09:42:11;;;;;;;;;;;;;;;;;;6273316;22;20332;-87
2022/11/20 09:44:38;;;;;;;;;;;;;;;;;;6246653;22;19903;-88
2022/11/20 09:47:04;;;;;;;;;;;;;;;;;;6273715;22;19910;-88
2022/11/20 09:49:30;;;;;;;;;;;;;;;;;;6274499;22;19974;-88
2022/11/20 09:51:56;;;;;;;;;;;;;;;;;;6274482;22;19903;-87
2022/11/20 09:54:22;;;;;;;;;;;;;;;;;;6273094;22;19911;-88
2022/11/20 09:56:48;;;;;;;;;;;;;;;;;;6245260;22;19926;-87
2022/11/20 09:59:13;;;;;;;;;;;;;;;;;;6272280;22;19903;-86
2022/11/20 10:01:40;;;;;;;;;;;;;;;;;;6273104;22;19911;-87
2022/11/20 10:04:06;;;;;;;;;;;;;;;;;;6244906;22;20397;-87
2022/11/20 10:06:32;;;;;;;;;;;;;;;;;;6272137;22;19911;-88
2022/11/20 10:08:58;;;;;;;;;;;;;;;;;;6273346;22;19903;-87
2022/11/20 10:11:24;;;;;;;;;;;;;;;;;;6271817;22;19935;-87
2022/11/20 10:13:50;;;;;;;;;;;;;;;;;;6272180;22;19911;-88
2022/11/20 10:16:15;;;;;;;;;;;;;;;;;;6271395;22;19903;-87
2022/11/20 10:18:41;;;;;;;;;;;;;;;;;;6244777;22;19908;-88
2022/11/20 10:21:07;;;;;;;;;;;;;;;;;;6271829;22;19922;-90
2022/11/20 10:23:33;;;;;;;;;;;;;;;;;;6273583;22;19907;-89
2022/11/20 10:25:59;;;;;;;;;;;;;;;;;;6273736;22;19904;-89
2022/11/20 10:28:25;;;;;;;;;;;;;;;;;;6273626;22;20332;-88
2022/11/20 10:30:51;;;;;;;;;;;;;;;;;;6273609;22;19908;-89
2022/11/20 10:33:17;;;;;;;;;;;;;;;;;;6275140;22;19918;-89
2022/11/20 10:35:43;;;;;;;;;;;;;;;;;;6274943;22;19909;-89
2022/11/20 10:38:09;;;;;;;;;;;;;;;;;;6273470;22;19907;-88
2022/11/20 10:40:35;;;;;;;;;;;;;;;;;;6273349;22;19933;-89
2022/11/20 10:43:00;;;;;;;;;;;;;;;;;;6247157;22;19926;-86
2022/11/20 10:45:26;;;;;;;;;;;;;;;;;;6273665;22;19904;-86
2022/11/20 10:47:52;;;;;;;;;;;;;;;;;;6272512;22;19914;-89
2022/11/20 10:50:18;;;;;;;;;;;;;;;;;;6245549;22;19907;-88
2022/11/20 10:52:44;;;;;;;;;;;;;;;;;;6245925;22;19904;-87
2022/11/20 10:55:10;;;;;;;;;;;;;;;;;;6273035;22;19911;-88
2022/11/20 10:57:36;;;;;;;;;;;;;;;;;;6245513;22;19941;-88
2022/11/20 11:00:02;;;;;;;;;;;;;;;;;;6246466;22;19933;-87
2022/11/20 11:02:28;;;;;;;;;;;;;;;;;;6273961;22;20225;-87
2022/11/20 11:04:54;;;;;;;;;;;;;;;;;;6272045;22;19987;-86
2022/11/20 11:07:20;;;;;;;;;;;;;;;;;;6272523;22;19910;-88
2022/11/20 11:09:46;;;;;;;;;;;;;;;;;;6272883;22;19903;-89
2022/11/20 11:12:12;;;;;;;;;;;;;;;;;;6245763;22;19907;-85
2022/11/20 11:14:38;;;;;;;;;;;;;;;;;;6272937;22;19904;-86
2022/11/20 11:17:03;;;;;;;;;;;;;;;;;;6272277;22;20247;-85
2022/11/20 11:19:29;;;;;;;;;;;;;;;;;;6273683;22;19903;-85
2022/11/20 11:21:56;;;;;;;;;;;;;;;;;;6272791;22;20283;-86
2022/11/20 11:24:22;;;;;;;;;;;;;;;;;;6272823;22;19907;-87
2022/11/20 11:26:48;;;;;;;;;;;;;;;;;;6272233;22;19911;-86
2022/11/20 11:29:14;;;;;;;;;;;;;;;;;;6272762;22;19904;-88
2022/11/20 11:31:39;;;;;;;;;;;;;;;;;;6272282;22;19981;-88
2022/11/20 11:34:05;;;;;;;;;;;;;;;;;;6245278;22;19904;-87
2022/11/20 11:36:31;;;;;;;;;;;;;;;;;;6273203;22;19903;-89
2022/11/20 11:38:57;;;;;;;;;;;;;;;;;;6272644;22;19912;-89
2022/11/20 11:41:23;;;;;;;;;;;;;;;;;;6272505;22;19957;-86
2022/11/20 11:46:34;;;;;;;;;;;;;;;;;;6273051;22;20384;-87
2022/11/20 11:49:00;;;;;;;;;;;;;;;;;;6245714;22;19927;-89
2022/11/20 11:51:26;;;;;;;;;;;;;;;;;;6272547;22;20336;-85
2022/11/20 11:53:52;;;;;;;;;;;;;;;;;;6272559;22;19907;-87
2022/11/20 11:56:18;;;;;;;;;;;;;;;;;;6272447;22;19904;-87
2022/11/20 11:58:43;;;;;;;;;;;;;;;;;;6271778;22;19911;-86
2022/11/20 12:01:09;;;;;;;;;;;;;;;;;;6271767;22;20002;-88
2022/11/20 12:03:35;;;;;;;;;;;;;;;;;;6273283;22;19912;-87
2022/11/20 12:06:01;;;;;;;;;;;;;;;;;;6273512;22;19904;-87
2022/11/20 12:08:27;;;;;;;;;;;;;;;;;;6271878;22;19904;-87
2022/11/20 12:10:53;;;;;;;;;;;;;;;;;;6270996;22;19953;-87
2022/11/20 12:13:19;;;;;;;;;;;;;;;;;;6243827;22;20320;-86
2022/11/20 12:15:45;;;;;;;;;;;;;;;;;;6272203;22;19903;-86
2022/11/20 12:18:11;;;;;;;;;;;;;;;;;;6272114;22;20338;-88
2022/11/20 12:20:37;;;;;;;;;;;;;;;;;;6272324;22;19911;-89
2022/11/20 12:23:03;;;;;;;;;;;;;;;;;;6272818;22;19903;-86
2022/11/20 12:25:28;;;;;;;;;;;;;;;;;;6245004;22;19903;-85
2022/11/20 12:27:54;;;;;;;;;;;;;;;;;;6271002;22;19931;-87
2022/11/20 12:30:20;;;;;;;;;;;;;;;;;;6270580;22;19910;-87
2022/11/20 12:32:46;;;;;;;;;;;;;;;;;;6270290;22;20285;-88
2022/11/20 12:35:12;;;;;;;;;;;;;;;;;;6271398;22;19907;-88
2022/11/20 12:37:38;;;;;;;;;;;;;;;;;;6244189;22;20239;-87
2022/11/20 12:40:04;;;;;;;;;;;;;;;;;;6272641;22;19911;-88
2022/11/20 12:45:15;;;;;;;;;;;;;;;;;;6271997;22;19949;-87
2022/11/20 12:47:41;;;;;;;;;;;;;;;;;;6244165;22;19908;-86
2022/11/20 12:50:06;;;;;;;;;;;;;;;;;;6244283;22;19926;-87
2022/11/20 12:52:32;;;;;;;;;;;;;;;;;;6270651;22;19918;-87
2022/11/20 12:54:58;;;;;;;;;;;;;;;;;;6271444;22;19935;-86
2022/11/20 12:57:25;;;;;;;;;;;;;;;;;;6244277;22;19903;-89
2022/11/20 12:59:50;;;;;;;;;;;;;;;;;;6243979;22;19903;-87
2022/11/20 13:02:16;;;;;;;;;;;;;;;;;;6243843;22;20350;-89
2022/11/20 13:04:42;;;;;;;;;;;;;;;;;;6270941;22;19961;-89
2022/11/20 13:07:08;;;;;;;;;;;;;;;;;;6243134;22;20244;-89
2022/11/20 13:09:34;;;;;;;;;;;;;;;;;;6245039;22;19910;-88
2022/11/20 13:12:00;;;;;;;;;;;;;;;;;;6244795;22;19903;-88
2022/11/20 13:14:26;;;;;;;;;;;;;;;;;;6271320;22;19927;-88
2022/11/20 13:16:52;;;;;;;;;;;;;;;;;;6270703;22;20363;-88
2022/11/20 13:19:17;;;;;;;;;;;;;;;;;;6243949;22;19904;-88
2022/11/20 13:21:46;;;;;;;;;;;;;;;;;;6243017;22;20221;-87
2022/11/20 13:24:11;;;;;;;;;;;;;;;;;;6243519;22;19904;-87
2022/11/20 13:26:38;;;;;;;;;;;;;;;;;;6269965;22;19907;-88
2022/11/20 13:29:04;;;;;;;;;;;;;;;;;;6244686;22;20247;-88
2022/11/20 13:31:30;;;;;;;;;;;;;;;;;;6243665;22;19978;-87
2022/11/20 13:33:56;;;;;;;;;;;;;;;;;;6243200;22;20401;-87
2022/11/20 13:36:22;;;;;;;;;;;;;;;;;;6269945;22;19907;-88
2022/11/20 13:38:48;;;;;;;;;;;;;;;;;;6270179;22;19922;-86
2022/11/20 13:41:31;;;;;;;;;;;;;;;;;;6270318;22;20434;-90
2022/11/20 13:43:56;;;;;;;;;;;;;;;;;;6270393;22;19911;-87
2022/11/20 13:46:24;;;;;;;;;;;;;;;;;;6269821;22;20258;-88
2022/11/20 13:48:50;;;;;;;;;;;;;;;;;;6269384;22;20324;-88
2022/11/20 13:51:16;;;;;;;;;;;;;;;;;;6242513;22;19904;-86
2022/11/20 13:53:42;;;;;;;;;;;;;;;;;;6242295;22;20050;-88
2022/11/20 13:56:08;;;;;;;;;;;;;;;;;;6269247;22;20221;-88
2022/11/20 13:58:34;;;;;;;;;;;;;;;;;;6270464;22;20037;-88
2022/11/20 14:01:03;;;;;;;;;;;;;;;;;;6269209;22;19911;-88
2022/11/20 14:03:29;;;;;;;;;;;;;;;;;;6242232;22;19907;-90
2022/11/20 14:05:55;;;;;;;;;;;;;;;;;;6242039;22;20217;-90
2022/11/20 14:08:21;;;;;;;;;;;;;;;;;;6241708;22;19950;-89
2022/11/20 14:10:47;;;;;;;;;;;;;;;;;;6269965;22;19904;-88
2022/11/20 14:13:13;;;;;;;;;;;;;;;;;;6269305;22;19918;-87
2022/11/20 14:15:40;;;;;;;;;;;;;;;;;;6242083;22;19978;-87
2022/11/20 14:18:06;;;;;;;;;;;;;;;;;;6243252;22;19946;-88
2022/11/20 14:20:35;;;;;;;;;;;;;;;;;;6243407;22;19961;-90
2022/11/20 14:23:03;;;;;;;;;;;;;;;;;;6264501;22;19938;-89
2022/11/20 14:25:30;;;;;;;;;;;;;;;;;;6242885;22;20281;-88
2022/11/20 14:27:56;;;;;;;;;;;;;;;;;;6270931;22;19907;-89
2022/11/20 14:30:22;;;;;;;;;;;;;;;;;;6271720;22;19907;-89
2022/11/20 14:32:48;;;;;;;;;;;;;;;;;;6271836;22;19956;-89
2022/11/20 14:35:14;;;;;;;;;;;;;;;;;;6244411;22;20259;-89
2022/11/20 14:37:40;;;;;;;;;;;;;;;;;;6244691;22;20439;-88
2022/11/20 14:40:06;;;;;;;;;;;;;;;;;;6265651;22;19918;-89
2022/11/20 14:42:32;;;;;;;;;;;;;;;;;;6272716;22;19927;-88
2022/11/20 14:44:58;;;;;;;;;;;;;;;;;;6268878;22;19907;-90
2022/11/20 14:47:24;;;;;;;;;;;;;;;;;;6271318;22;20252;-88
2022/11/20 14:49:50;;;;;;;;;;;;;;;;;;6270819;22;19939;-88
2022/11/20 14:52:16;;;;;;;;;;;;;;;;;;6269138;22;19939;-88
2022/11/20 14:54:42;;;;;;;;;;;;;;;;;;6271462;22;19903;-88
2022/11/20 14:57:08;;;;;;;;;;;;;;;;;;6271626;22;19945;-89
2022/11/20 14:59:34;;;;;;;;;;;;;;;;;;6272719;22;19934;-88
2022/11/20 15:02:00;;;;;;;;;;;;;;;;;;6269758;22;19911;-88
2022/11/20 15:04:25;;;;;;;;;;;;;;;;;;6269929;22;19903;-88
2022/11/20 15:06:51;;;;;;;;;;;;;;;;;;6268416;22;20240;-89
2022/11/20 15:09:17;;;;;;;;;;;;;;;;;;6270293;22;19904;-88
2022/11/20 15:11:43;;;;;;;;;;;;;;;;;;6269336;22;20405;-89
2022/11/20 15:14:09;;;;;;;;;;;;;;;;;;6271517;22;19911;-88
2022/11/20 15:16:35;;;;;;;;;;;;;;;;;;6272665;22;19957;-88
2022/11/20 15:19:01;;;;;;;;;;;;;;;;;;6270828;22;19903;-88
2022/11/20 15:21:27;;;;;;;;;;;;;;;;;;6271478;22;20505;-90
2022/11/20 15:23:53;;;;;;;;;;;;;;;;;;6269244;22;19907;-89
2022/11/20 15:26:19;;;;;;;;;;;;;;;;;;6269911;22;19903;-88
2022/11/20 15:28:47;;;;;;;;;;;;;;;;;;6270592;22;19904;-88
2022/11/20 15:31:13;;;;;;;;;;;;;;;;;;6271411;22;20291;-88
2022/11/20 15:33:39;;;;;;;;;;;;;;;;;;6270886;22;19904;-88
2022/11/20 15:36:04;;;;;;;;;;;;;;;;;;6271880;22;19931;-88
2022/11/20 15:38:30;;;;;;;;;;;;;;;;;;6268925;22;20568;-89
2022/11/20 15:40:56;;;;;;;;;;;;;;;;;;6269872;22;19912;-88
2022/11/20 15:43:22;;;;;;;;;;;;;;;;;;6270223;22;20299;-88
2022/11/20 15:45:48;;;;;;;;;;;;;;;;;;6267290;22;19911;-87
2022/11/20 15:48:14;;;;;;;;;;;;;;;;;;6268364;22;19910;-89
2022/11/20 15:50:40;;;;;;;;;;;;;;;;;;6269453;22;20328;-89
2022/11/20 15:53:06;;;;;;;;;;;;;;;;;;6272417;22;19929;-89
2022/11/20 15:55:32;;;;;;;;;;;;;;;;;;6272212;22;20368;-87
2022/11/20 15:57:59;;;;;;;;;;;;;;;;;;6273837;22;19908;-90
2022/11/20 16:00:25;;;;;;;;;;;;;;;;;;6273969;22;19972;-89
2022/11/20 16:02:52;;;;;;;;;;;;;;;;;;6273762;22;19903;-90
2022/11/20 16:05:18;;;;;;;;;;;;;;;;;;6271239;22;19973;-89
2022/11/20 16:07:44;;;;;;;;;;;;;;;;;;6269055;22;19910;-88
2022/11/20 16:10:10;;;;;;;;;;;;;;;;;;6271402;22;19904;-88
2022/11/20 16:18:05;;;;;;;;;;;;;;;;;;6270657;22;19911;-88
2022/11/20 16:20:31;;;;;;;;;;;;;;;;;;6270646;22;19907;-88
2022/11/20 16:22:57;;;;;;;;;;;;;;;;;;6269071;22;20120;-88
2022/11/20 16:25:23;;;;;;;;;;;;;;;;;;6270973;22;19961;-88
2022/11/20 16:27:49;;;;;;;;;;;;;;;;;;6270530;22;20367;-88
2022/11/20 16:30:15;;;;;;;;;;;;;;;;;;6269523;22;20378;-88
2022/11/20 16:32:41;;;;;;;;;;;;;;;;;;6270725;22;19903;-88
2022/11/20 16:35:07;;;;;;;;;;;;;;;;;;6271574;22;19903;-88
2022/11/20 16:37:33;;;;;;;;;;;;;;;;;;6272014;22;20347;-88
2022/11/20 16:39:59;;;;;;;;;;;;;;;;;;6270389;22;19915;-87
2022/11/20 16:42:25;;;;;;;;;;;;;;;;;;6270296;22;19907;-88
2022/11/20 16:44:50;;;;;;;;;;;;;;;;;;6270617;22;20378;-87
2022/11/20 16:47:16;;;;;;;;;;;;;;;;;;6270311;22;20374;-88
2022/11/20 16:49:42;;;;;;;;;;;;;;;;;;6270120;22;19907;-88
2022/11/20 16:52:08;;;;;;;;;;;;;;;;;;6270921;22;19903;-88
2022/11/20 16:54:34;;;;;;;;;;;;;;;;;;6272136;22;19907;-88
2022/11/20 16:57:00;;;;;;;;;;;;;;;;;;6269754;22;19943;-87
2022/11/20 16:59:26;;;;;;;;;;;;;;;;;;6269230;22;19910;-89